Latest Weather Observations for Yarrawonga

IDV60801

Issued at 7:33 pm EDT Thursday 30 March 2017 (issued every 30 minutes, with the page automatically refreshed every 10 minutes)

About weather observations | Map of weather stations | Latest weather observations for VIC | Other Formats
Station Details ID: 081124 Name: YARRAWONGA Lat: -36.03 Lon: 146.03 Height: 128.9 m
Data from the previous 72 hours. | See also: Recent months at Yarrawonga
Date/Time
EDT
Temp
°C
App
Temp
°C
Dew
Point
°C
Rel
Hum
%
Delta-T
°C
Wind Press
QNH
hPa
Press
MSL
hPa
Rain since
9am
mm
Dir  Spd
km/h
Gust
km/h
Spd
kts
Gust
kts
30/07:30pm 15.8 9.0 5.1 49 5.1 SSW 30 39 16 21 1017.3 1016.9 0.0
30/07:00pm 16.5 8.5 5.5 48 5.3 SW 37 52 20 28 1016.8 1016.4 0.0
30/06:49pm 16.8 9.7 6.3 50 5.2 SSW 33 52 18 28 1016.6 1016.2 0.0
30/06:30pm 17.5 9.4 7.0 50 5.3 SSW 39 54 21 29 1016.1 1015.7 0.0
30/06:00pm 18.3 9.8 5.2 42 6.4 SW 39 54 21 29 1015.8 1015.4 0.0
30/05:30pm 19.1 10.3 5.6 41 6.7 SSW 41 59 22 32 1015.2 1014.8 0.0
30/05:00pm 19.3 10.9 5.7 41 6.7 SSW 39 54 21 29 1014.8 1014.4 0.0
30/04:30pm 19.6 10.8 5.6 40 6.9 SW 41 56 22 30 1014.6 1014.2 0.0
30/04:16pm 19.9 11.4 5.2 38 7.2 SW 39 59 21 32 1014.6 1014.2 0.0
30/04:00pm 20.6 11.9 5.8 38 7.4 SW 41 56 22 30 1014.4 1014.0 0.0
30/03:30pm 20.2 12.2 5.8 39 7.2 SW 37 50 20 27 1014.1 1013.7 0.0
30/03:12pm 20.6 13.6 5.8 38 7.4 SSW 32 52 17 28 1014.0 1013.6 0.0
30/03:00pm 19.9 11.7 4.8 37 7.4 SSW 37 50 20 27 1014.1 1013.7 0.0
30/02:37pm 20.4 13.3 6.4 40 7.1 SW 33 59 18 32 1014.1 1013.7 0.0
30/02:30pm 19.5 12.4 5.6 40 6.9 SSW 32 44 17 24 1014.2 1013.8 0.0
30/02:00pm 19.6 12.0 6.0 41 6.8 SSW 35 50 19 27 1014.3 1013.9 0.0
30/01:30pm 19.4 11.5 6.2 42 6.6 SSW 37 54 20 29 1014.5 1014.1 0.0
30/01:01pm 18.6 10.6 5.5 42 6.4 SSW 37 57 20 31 1014.7 1014.3 0.0
30/01:00pm 18.7 11.0 5.5 42 6.5 SSW 35 52 19 28 1014.7 1014.3 0.0
30/12:30pm 18.8 10.8 5.6 42 6.5 SSW 37 59 20 32 1014.6 1014.2 0.0
30/12:07pm 18.1 10.2 6.0 45 6.0 SSW 37 56 20 30 1014.7 1014.3 0.0
30/12:00pm 18.6 10.7 6.4 45 6.1 SSW 37 50 20 27 1014.8 1014.4 0.0
30/11:30am 17.4 9.6 6.6 49 5.4 SW 37 50 20 27 1014.8 1014.4 0.0
30/11:00am 16.7 9.1 7.6 55 4.6 SW 37 54 20 29 1014.8 1014.4 0.0
30/10:58am 16.3 9.1 7.5 56 4.4 SW 35 54 19 29 1015.0 1014.5 0.0
30/10:30am 15.5 8.3 7.5 59 4.0 SW 35 46 19 25 1015.2 1014.8 0.0
30/10:00am 14.6 7.7 7.2 61 3.7 SW 33 48 18 26 1014.8 1014.4 0.0
30/09:30am 13.9 7.7 7.7 66 3.1 SW 30 39 16 21 1014.7 1014.3 0.0
30/09:00am 12.6 6.0 7.7 72 2.4 SW 32 43 17 23 1014.4 1014.0 0.0
30/08:30am 11.5 5.6 7.4 76 2.0 SW 28 35 15 19 1014.1 1013.7 0.0
30/08:00am 10.5 5.7 7.2 80 1.6 SW 22 30 12 16 1013.8 1013.4 0.0
30/07:30am 10.2 5.0 7.3 82 1.4 SW 24 33 13 18 1013.2 1012.8 0.0
30/07:00am 10.3 4.8 7.4 82 1.4 SW 26 33 14 18 1012.6 1012.2 0.0
30/06:30am 10.4 5.0 7.8 84 1.3 SW 26 35 14 19 1012.2 1011.8 0.0
30/06:00am 10.6 5.2 8.0 84 1.3 WSW 26 32 14 17 1012.0 1011.6 0.0
30/05:30am 10.5 5.8 7.7 83 1.4 WSW 22 30 12 16 1011.4 1011.0 0.0
30/05:00am 11.2 6.1 7.7 79 1.7 WSW 24 30 13 16 1011.3 1010.9 0.0
30/04:30am 11.7 7.9 7.6 76 2.0 WSW 17 24 9 13 1011.3 1010.9 0.0
30/04:00am 12.6 8.5 7.9 73 2.3 SW 19 22 10 12 1011.2 1010.8 0.0
30/03:30am 12.8 9.1 8.1 73 2.3 SSW 17 26 9 14 1011.0 1010.6 0.0
30/03:00am 13.1 7.8 8.4 73 2.4 SW 26 41 14 22 1011.5 1011.1 0.0
30/02:30am 13.4 6.1 8.7 73 2.4 SW 37 52 20 28 1011.3 1010.9 0.0
30/02:02am 13.4 6.3 9.5 77 2.0 WSW 37 57 20 31 1010.7 1010.3 0.0
30/02:00am 13.5 6.0 9.6 77 2.0 WSW 39 54 21 29 1010.7 1010.3 0.0
30/01:30am 14.8 8.6 11.4 80 1.8 WSW 35 48 19 26 1009.8 1009.4 0.0
30/01:00am 17.4 13.2 12.3 72 2.8 W 26 39 14 21 1008.5 1008.1 0.0
30/12:30am 18.1 15.1 10.7 62 4.0 W 17 24 9 13 1007.8 1007.3 0.0
30/12:00am 18.3 16.1 10.9 62 4.0 W 13 15 7 8 1007.6 1007.1 0.0
 
Date/Time
EDT
Temp
°C
App
Temp
°C
Dew
Point
°C
Rel
Hum
%
Delta-T
°C
Wind Press
QNH
hPa
Press
MSL
hPa
Rain since
9am
mm
Dir  Spd
km/h
Gust
km/h
Spd
kts
Gust
kts
29/11:30pm 15.7 14.8 11.5 76 2.3 W 7 9 4 5 1007.4 1006.9 0.0
29/11:00pm 16.3 16.5 11.9 75 2.4 NNW 2 6 1 3 1007.3 1006.8 0.0
29/10:30pm 16.4 16.9 11.6 73 2.6 CALM 0 4 0 2 1007.3 1006.8 0.0
29/10:00pm 17.4 17.6 10.5 64 3.7 CALM 0 0 0 0 1007.4 1006.9 0.0
29/09:30pm 18.0 18.3 10.9 63 3.9 CALM 0 0 0 0 1007.5 1007.0 0.0
29/09:00pm 18.3 17.9 11.1 63 3.9 SSW 4 6 2 3 1007.4 1006.9 0.0
29/08:30pm 19.4 18.9 10.9 58 4.7 NW 4 6 2 3 1007.3 1006.8 0.0
29/08:00pm 20.6 20.5 10.7 53 5.4 WNW 2 4 1 2 1007.2 1006.7 0.0
29/07:30pm 22.7 21.8 10.5 46 6.7 WNW 6 6 3 3 1007.2 1006.7 0.0
29/07:00pm 24.9 24.2 10.0 39 8.3 WNW 4 6 2 3 1007.1 1006.6 0.0
29/06:30pm 26.2 24.3 9.1 34 9.4 NW 9 13 5 7 1006.9 1006.4 0.0
29/06:00pm 26.8 24.2 9.2 33 9.7 WNW 13 17 7 9 1006.9 1006.4 0.0
29/05:30pm 27.3 25.2 9.6 33 9.9 WNW 11 15 6 8 1006.7 1006.3 0.0
29/05:00pm 27.5 25.8 9.8 33 9.9 NW 9 15 5 8 1006.9 1006.4 0.0
29/04:30pm 27.0 24.0 9.4 33 9.8 NW 15 22 8 12 1007.2 1006.7 0.0
29/04:00pm 27.6 25.2 9.9 33 9.9 WNW 13 20 7 11 1007.6 1007.1 0.0
29/03:30pm 27.3 25.5 9.6 33 9.9 W 9 17 5 9 1008.0 1007.5 0.0
29/03:00pm 27.1 25.3 9.5 33 9.8 NW 9 17 5 9 1008.4 1007.9 0.0
29/02:30pm 26.8 25.3 9.2 33 9.7 N 7 11 4 6 1008.9 1008.5 0.0
29/02:00pm 26.3 23.8 9.6 35 9.3 NNE 13 22 7 12 1009.6 1009.2 0.0
29/01:30pm 25.9 24.2 9.7 36 9.0 N 9 19 5 10 1010.1 1009.7 0.0
29/01:00pm 25.5 23.5 10.1 38 8.6 NNE 11 19 6 10 1010.5 1010.1 0.0
29/12:30pm 24.4 21.2 9.9 40 8.0 N 17 24 9 13 1011.0 1010.6 0.0
29/12:00pm 23.6 22.0 11.6 47 6.8 NNE 11 19 6 10 1011.5 1011.1 0.0
29/11:30am 21.8 20.2 11.5 52 5.8 NNE 11 15 6 8 1011.9 1011.5 0.0
29/11:00am 21.3 20.4 12.7 58 4.9 NE 9 13 5 7 1012.3 1011.9 0.0
29/10:30am 19.6 18.9 13.3 67 3.6 NE 9 13 5 7 1012.4 1012.0 0.0
29/10:00am 18.5 17.2 12.5 68 3.4 ENE 11 17 6 9 1012.3 1011.9 0.0
29/09:30am 17.1 16.1 12.4 74 2.6 ENE 9 13 5 7 1012.4 1012.0 0.0
29/09:00am 15.4 14.4 12.3 82 1.7 E 9 13 5 7 1012.1 1011.7 0.0
29/08:30am 13.7 12.9 11.6 87 1.1 E 7 9 4 5 1012.2 1011.8 0.0
29/08:00am 11.4 10.4 10.3 93 0.6 ESE 6 7 3 4 1011.9 1011.5 0.0
29/07:30am 9.8 7.9 9.0 95 0.4 ESE 9 9 5 5 1011.5 1011.1 0.0
29/07:00am 10.9 9.8 9.8 93 0.6 E 6 7 3 4 1011.5 1011.1 0.0
29/06:30am 10.5 9.3 9.6 94 0.5 E 6 7 3 4 1011.3 1010.9 0.0
29/06:00am 10.8 10.0 9.7 93 0.6 ESE 4 6 2 3 1011.3 1010.9 0.0
29/05:30am 11.1 10.3 9.7 91 0.7 E 4 6 2 3 1011.2 1010.8 0.0
29/05:00am 11.4 10.6 9.5 88 1.0 E 4 4 2 2 1011.2 1010.8 0.0
29/04:30am 11.8 11.0 9.7 87 1.1 E 4 6 2 3 1011.3 1010.9 0.0
29/04:00am 12.0 11.6 9.6 85 1.2 E 2 2 1 1 1011.5 1011.1 0.0
29/03:30am 12.5 11.7 9.7 83 1.4 E 4 6 2 3 1011.7 1011.3 0.0
29/03:00am 12.0 11.6 9.6 85 1.2 SSE 2 7 1 4 1011.9 1011.5 0.0
29/02:30am 12.3 11.8 9.5 83 1.4 E 2 4 1 2 1012.3 1011.9 0.0
29/02:00am 12.8 11.6 9.6 81 1.6 E 6 7 3 4 1012.3 1011.9 0.0
29/01:30am 12.2 11.4 9.8 85 1.2 ESE 4 7 2 4 1012.7 1012.3 0.0
29/01:00am 12.9 13.1 10.4 85 1.3 CALM 0 0 0 0 1012.7 1012.3 0.0
29/12:30am 13.5 13.7 10.5 82 1.6 CALM 0 0 0 0 1013.0 1012.6 0.0
29/12:00am 13.9 14.3 11.2 84 1.4 CALM 0 0 0 0 1013.1 1012.7 0.0
 
Date/Time
EDT
Temp
°C
App
Temp
°C
Dew
Point
°C
Rel
Hum
%
Delta-T
°C
Wind Press
QNH
hPa
Press
MSL
hPa
Rain since
9am
mm
Dir  Spd
km/h
Gust
km/h
Spd
kts
Gust
kts
28/11:30pm 14.0 13.8 10.6 80 1.8 SSW 2 2 1 1 1013.3 1012.9 0.0
28/11:00pm 14.8 14.4 11.0 78 2.0 SSW 4 4 2 2 1013.4 1013.0 0.0
28/10:30pm 14.8 14.0 11.0 78 2.0 S 6 7 3 4 1013.5 1013.1 0.0
28/10:00pm 15.8 15.4 11.2 74 2.5 WSW 4 4 2 2 1013.4 1013.0 0.0
28/09:30pm 16.5 16.1 11.2 71 2.9 WSW 4 4 2 2 1013.2 1012.8 0.0
28/09:00pm 17.3 16.8 10.9 66 3.5 WSW 4 4 2 2 1013.0 1012.6 0.0
28/08:30pm 17.4 16.6 11.2 67 3.4 WSW 6 6 3 3 1012.7 1012.3 0.0
28/08:00pm 19.9 19.5 11.1 57 4.8 WNW 4 4 2 2 1012.6 1012.2 0.0
28/07:30pm 21.1 20.0 10.0 49 6.0 WNW 6 7 3 4 1012.6 1012.2 0.0
28/07:00pm 22.9 21.5 9.0 41 7.5 WNW 6 9 3 5 1012.6 1012.2 0.0
28/06:30pm 24.0 22.4 8.8 38 8.2 NW 7 11 4 6 1012.3 1011.9 0.0
28/06:00pm 24.7 22.6 8.2 35 8.9 WNW 9 15 5 8 1012.2 1011.8 0.0
28/05:30pm 24.5 22.1 8.5 36 8.6 NW 11 20 6 11 1012.3 1011.9 0.0
28/05:00pm 25.3 23.8 9.2 36 8.8 WNW 7 13 4 7 1012.2 1011.8 0.0
28/04:30pm 24.8 22.8 8.7 36 8.7 W 9 20 5 11 1012.2 1011.8 0.0
28/04:00pm 25.1 23.3 9.4 37 8.6 WSW 9 19 5 10 1012.5 1012.1 0.0
28/03:30pm 24.2 22.7 10.5 42 7.6 NW 9 19 5 10 1012.7 1012.3 0.0
28/03:00pm 24.7 23.5 10.2 40 8.1 NNW 7 13 4 7 1012.8 1012.4 0.0
28/02:30pm 24.5 23.2 10.0 40 8.0 WNW 7 15 4 8 1013.2 1012.8 0.0
28/02:00pm 24.1 23.1 11.1 44 7.3 WSW 7 13 4 7 1013.4 1013.0 0.0
28/01:30pm 23.6 23.3 11.3 46 6.9 WNW 4 9 2 5 1013.9 1013.5 0.0
28/01:00pm 22.4 21.0 10.9 48 6.4 SSW 9 15 5 8 1014.3 1013.9 0.0
28/12:30pm 22.0 21.4 11.7 52 5.8 S 6 15 3 8 1014.7 1014.3 0.0
28/12:00pm 20.8 19.3 12.0 57 4.9 SSW 11 19 6 10 1015.0 1014.5 0.0
28/11:30am 20.3 19.2 11.8 58 4.7 SSW 9 19 5 10 1015.1 1014.6 0.0
28/11:00am 20.0 18.5 12.0 60 4.5 SSW 11 17 6 9 1015.3 1014.9 0.0
28/10:30am 19.0 16.9 12.3 65 3.8 SW 15 22 8 12 1015.6 1015.2 0.0
28/10:00am 17.6 15.7 12.9 74 2.6 WSW 15 20 8 11 1015.6 1015.2 0.0
28/09:30am 16.1 14.2 13.0 82 1.7 SW 15 19 8 10 1015.6 1015.2 0.0
28/09:00am 14.4 12.7 12.3 87 1.1 WSW 13 19 7 10 1015.2 1014.8 0.8
28/08:30am 12.3 11.4 11.4 94 0.5 WSW 7 11 4 6 1015.0 1014.5 0.8
28/08:00am 10.3 9.6 10.0 98 0.2 SW 4 6 2 3 1015.0 1014.5 0.8
28/07:30am 9.6 8.1 9.3 98 0.1 SW 7 9 4 5 1014.4 1014.0 0.8
28/07:00am 9.9 8.5 9.4 97 0.3 WSW 7 11 4 6 1014.0 1013.6 0.8
28/06:30am 9.9 8.4 9.1 95 0.4 WSW 7 9 4 5 1013.5 1013.1 0.8
28/06:00am 10.8 9.4 9.7 93 0.6 W 7 9 4 5 1013.5 1013.1 0.6
28/05:30am 10.5 8.7 9.4 93 0.6 WSW 9 9 5 5 1013.1 1012.7 0.6
28/05:00am 10.7 9.3 9.6 93 0.6 WSW 7 9 4 5 1013.0 1012.6 0.6
28/04:30am 10.6 8.9 9.8 95 0.4 WSW 9 13 5 7 1012.9 1012.5 0.6
28/04:00am 10.9 9.5 9.5 91 0.7 WSW 7 11 4 6 1013.2 1012.8 0.6
28/03:30am 12.1 9.8 10.3 89 0.9 W 13 15 7 8 1013.4 1013.0 0.6
28/03:00am 11.7 10.4 10.1 90 0.8 W 7 9 4 5 1013.5 1013.1 0.6
28/02:30am 12.6 11.1 10.7 88 1.0 W 9 11 5 6 1013.6 1013.2 0.6
28/02:00am 12.8 11.3 10.7 87 1.1 W 9 13 5 7 1013.9 1013.5 0.6
28/01:30am 12.8 10.8 10.3 85 1.3 WSW 11 15 6 8 1014.1 1013.7 0.6
28/01:00am 13.8 12.0 10.8 82 1.6 W 11 13 6 7 1014.2 1013.8 0.6
28/12:30am 13.8 11.1 10.4 80 1.8 WSW 15 17 8 9 1014.1 1013.7 0.6
28/12:00am 14.7 12.0 10.3 75 2.3 WSW 15 19 8 10 1014.0 1013.6 0.6
 
Date/Time
EDT
Temp
°C
App
Temp
°C
Dew
Point
°C
Rel
Hum
%
Delta-T
°C
Wind Press
QNH
hPa
Press
MSL
hPa
Rain since
9am
mm
Dir  Spd
km/h
Gust
km/h
Spd
kts
Gust
kts
27/11:30pm 15.6 12.9 10.4 71 2.8 SW 15 20 8 11 1013.9 1013.5 0.6
27/11:00pm 15.9 12.5 10.4 70 2.9 SW 19 26 10 14 1013.6 1013.2 0.6
27/10:30pm 15.5 12.1 10.7 73 2.6 WSW 19 24 10 13 1013.3 1012.9 0.6
27/10:00pm 16.0 13.1 11.0 72 2.7 SW 17 22 9 12 1012.9 1012.5 0.6
27/09:30pm 16.4 13.8 12.0 75 2.4 SW 17 24 9 13 1012.3 1011.9 0.6
27/09:00pm 17.6 14.6 12.1 70 3.0 SW 19 24 10 13 1011.4 1011.0 0.6
27/08:30pm 18.3 15.6 13.4 73 2.8 SW 20 26 11 14 1010.9 1010.5 0.6
27/08:00pm 19.2 16.7 15.1 77 2.4 SW 22 30 12 16 1010.3 1009.9 0.6

Other Formats:

Comma delimited format used in spreadsheet applications
http://www.bom.gov.au/fwo/IDV60801/IDV60801.94862.axf

JavaScript Object Notation format (JSON) in row-major order
http://www.bom.gov.au/fwo/IDV60801/IDV60801.94862.json